sensor_id;sensor_type;location;lat;lon;timestamp;P1;durP1;ratioP1;P2;durP2;ratioP2
48205;SDS011;33995;48.202;16.260;2023-08-20T00:02:07;18.43;;;16.73;;
48205;SDS011;33995;48.202;16.260;2023-08-20T00:04:39;19.13;;;17.43;;
48205;SDS011;33995;48.202;16.260;2023-08-20T00:07:14;18.07;;;16.47;;
48205;SDS011;33995;48.202;16.260;2023-08-20T00:09:46;18.80;;;17.20;;
48205;SDS011;33995;48.202;16.260;2023-08-20T00:12:17;18.27;;;16.77;;
48205;SDS011;33995;48.202;16.260;2023-08-20T00:17:33;18.43;;;16.93;;
48205;SDS011;33995;48.202;16.260;2023-08-20T00:20:05;18.77;;;17.17;;
48205;SDS011;33995;48.202;16.260;2023-08-20T00:22:38;18.13;;;16.73;;
48205;SDS011;33995;48.202;16.260;2023-08-20T00:25:21;17.43;;;16.03;;
48205;SDS011;33995;48.202;16.260;2023-08-20T00:27:50;18.77;;;17.27;;
48205;SDS011;33995;48.202;16.260;2023-08-20T00:30:19;18.97;;;17.27;;
48205;SDS011;33995;48.202;16.260;2023-08-20T00:32:47;18.00;;;16.60;;
48205;SDS011;33995;48.202;16.260;2023-08-20T00:35:20;18.37;;;16.87;;
48205;SDS011;33995;48.202;16.260;2023-08-20T00:37:52;19.20;;;17.60;;
48205;SDS011;33995;48.202;16.260;2023-08-20T00:40:22;18.63;;;17.10;;
48205;SDS011;33995;48.202;16.260;2023-08-20T00:42:51;18.20;;;16.77;;
48205;SDS011;33995;48.202;16.260;2023-08-20T00:45:24;18.27;;;16.77;;
48205;SDS011;33995;48.202;16.260;2023-08-20T00:47:58;17.97;;;16.63;;
48205;SDS011;33995;48.202;16.260;2023-08-20T00:50:30;18.13;;;16.73;;
48205;SDS011;33995;48.202;16.260;2023-08-20T00:52:57;18.43;;;17.03;;
48205;SDS011;33995;48.202;16.260;2023-08-20T00:55:27;18.13;;;16.60;;
48205;SDS011;33995;48.202;16.260;2023-08-20T00:57:59;17.77;;;16.20;;
48205;SDS011;33995;48.202;16.260;2023-08-20T01:00:38;18.80;;;17.10;;
48205;SDS011;33995;48.202;16.260;2023-08-20T01:03:09;18.27;;;16.77;;
48205;SDS011;33995;48.202;16.260;2023-08-20T01:05:54;18.33;;;16.83;;
48205;SDS011;33995;48.202;16.260;2023-08-20T01:08:35;18.40;;;17.00;;
48205;SDS011;33995;48.202;16.260;2023-08-20T01:11:21;18.23;;;16.83;;
48205;SDS011;33995;48.202;16.260;2023-08-20T01:14:16;18.57;;;17.17;;
48205;SDS011;33995;48.202;16.260;2023-08-20T01:16:48;17.73;;;16.23;;
48205;SDS011;33995;48.202;16.260;2023-08-20T01:19:18;18.07;;;16.67;;
48205;SDS011;33995;48.202;16.260;2023-08-20T01:28:27;19.63;;;17.97;;
48205;SDS011;33995;48.202;16.260;2023-08-20T01:31:10;18.13;;;16.73;;
48205;SDS011;33995;48.202;16.260;2023-08-20T01:33:39;18.37;;;16.97;;
48205;SDS011;33995;48.202;16.260;2023-08-20T01:36:07;19.00;;;17.50;;
48205;SDS011;33995;48.202;16.260;2023-08-20T01:38:37;18.03;;;16.63;;
48205;SDS011;33995;48.202;16.260;2023-08-20T01:41:12;18.33;;;16.87;;
48205;SDS011;33995;48.202;16.260;2023-08-20T01:43:44;18.37;;;16.83;;
48205;SDS011;33995;48.202;16.260;2023-08-20T01:46:13;18.57;;;16.97;;
48205;SDS011;33995;48.202;16.260;2023-08-20T01:48:45;19.30;;;17.60;;
48205;SDS011;33995;48.202;16.260;2023-08-20T01:51:16;19.03;;;17.53;;
48205;SDS011;33995;48.202;16.260;2023-08-20T01:53:44;19.20;;;17.43;;
48205;SDS011;33995;48.202;16.260;2023-08-20T01:56:23;19.60;;;17.83;;
48205;SDS011;33995;48.202;16.260;2023-08-20T01:58:52;19.40;;;17.80;;
48205;SDS011;33995;48.202;16.260;2023-08-20T02:01:22;19.50;;;17.80;;
48205;SDS011;33995;48.202;16.260;2023-08-20T02:04:03;19.13;;;17.57;;
48205;SDS011;33995;48.202;16.260;2023-08-20T02:06:34;19.17;;;17.63;;
48205;SDS011;33995;48.202;16.260;2023-08-20T02:09:02;18.33;;;16.93;;
48205;SDS011;33995;48.202;16.260;2023-08-20T02:11:31;19.43;;;17.90;;
48205;SDS011;33995;48.202;16.260;2023-08-20T02:14:03;18.60;;;17.20;;
48205;SDS011;33995;48.202;16.260;2023-08-20T02:16:34;19.70;;;18.10;;
48205;SDS011;33995;48.202;16.260;2023-08-20T02:19:05;18.40;;;16.90;;
48205;SDS011;33995;48.202;16.260;2023-08-20T02:21:36;18.03;;;16.63;;
48205;SDS011;33995;48.202;16.260;2023-08-20T02:24:06;19.23;;;17.63;;
48205;SDS011;33995;48.202;16.260;2023-08-20T02:26:34;18.37;;;16.87;;
48205;SDS011;33995;48.202;16.260;2023-08-20T02:29:16;18.47;;;16.93;;
48205;SDS011;33995;48.202;16.260;2023-08-20T02:31:45;18.60;;;17.10;;
48205;SDS011;33995;48.202;16.260;2023-08-20T02:34:16;18.87;;;17.27;;
48205;SDS011;33995;48.202;16.260;2023-08-20T02:36:46;18.23;;;16.83;;
48205;SDS011;33995;48.202;16.260;2023-08-20T02:39:17;18.53;;;16.87;;
48205;SDS011;33995;48.202;16.260;2023-08-20T02:41:50;19.47;;;17.77;;
48205;SDS011;33995;48.202;16.260;2023-08-20T02:44:22;19.13;;;17.63;;
48205;SDS011;33995;48.202;16.260;2023-08-20T02:46:53;19.10;;;17.43;;
48205;SDS011;33995;48.202;16.260;2023-08-20T02:49:23;19.67;;;18.10;;
48205;SDS011;33995;48.202;16.260;2023-08-20T02:51:55;19.53;;;17.83;;
48205;SDS011;33995;48.202;16.260;2023-08-20T02:54:27;19.50;;;18.00;;
48205;SDS011;33995;48.202;16.260;2023-08-20T02:56:58;19.77;;;18.17;;
48205;SDS011;33995;48.202;16.260;2023-08-20T02:59:28;19.23;;;17.63;;
48205;SDS011;33995;48.202;16.260;2023-08-20T03:01:55;19.37;;;17.77;;
48205;SDS011;33995;48.202;16.260;2023-08-20T03:04:26;19.07;;;17.47;;
48205;SDS011;33995;48.202;16.260;2023-08-20T03:06:54;19.50;;;17.90;;
48205;SDS011;33995;48.202;16.260;2023-08-20T03:09:25;18.40;;;16.90;;
48205;SDS011;33995;48.202;16.260;2023-08-20T03:11:51;19.57;;;17.97;;
48205;SDS011;33995;48.202;16.260;2023-08-20T03:14:24;19.53;;;17.87;;
48205;SDS011;33995;48.202;16.260;2023-08-20T03:16:56;18.00;;;16.50;;
48205;SDS011;33995;48.202;16.260;2023-08-20T03:19:32;18.77;;;17.23;;
48205;SDS011;33995;48.202;16.260;2023-08-20T03:22:04;19.07;;;17.57;;
48205;SDS011;33995;48.202;16.260;2023-08-20T03:24:34;19.50;;;17.90;;
48205;SDS011;33995;48.202;16.260;2023-08-20T03:27:03;18.67;;;17.17;;
48205;SDS011;33995;48.202;16.260;2023-08-20T03:29:30;18.77;;;17.37;;
48205;SDS011;33995;48.202;16.260;2023-08-20T03:32:03;19.17;;;17.57;;
48205;SDS011;33995;48.202;16.260;2023-08-20T03:34:34;18.63;;;17.23;;
48205;SDS011;33995;48.202;16.260;2023-08-20T03:37:02;19.07;;;17.57;;
48205;SDS011;33995;48.202;16.260;2023-08-20T03:39:35;19.37;;;17.77;;
48205;SDS011;33995;48.202;16.260;2023-08-20T03:42:05;19.07;;;17.47;;
48205;SDS011;33995;48.202;16.260;2023-08-20T03:44:38;19.37;;;17.70;;
48205;SDS011;33995;48.202;16.260;2023-08-20T03:47:06;19.90;;;18.13;;
48205;SDS011;33995;48.202;16.260;2023-08-20T03:49:36;19.80;;;18.30;;
48205;SDS011;33995;48.202;16.260;2023-08-20T03:52:05;19.00;;;17.40;;
48205;SDS011;33995;48.202;16.260;2023-08-20T03:54:34;19.00;;;17.40;;
48205;SDS011;33995;48.202;16.260;2023-08-20T03:57:03;19.70;;;18.07;;
48205;SDS011;33995;48.202;16.260;2023-08-20T03:59:30;20.03;;;18.23;;
48205;SDS011;33995;48.202;16.260;2023-08-20T04:02:00;18.40;;;16.90;;
48205;SDS011;33995;48.202;16.260;2023-08-20T04:04:29;18.77;;;17.27;;
48205;SDS011;33995;48.202;16.260;2023-08-20T04:07:06;19.20;;;17.70;;
48205;SDS011;33995;48.202;16.260;2023-08-20T04:09:36;19.57;;;17.97;;
48205;SDS011;33995;48.202;16.260;2023-08-20T04:12:06;18.80;;;17.20;;
48205;SDS011;33995;48.202;16.260;2023-08-20T04:14:36;18.77;;;17.27;;
48205;SDS011;33995;48.202;16.260;2023-08-20T04:17:08;19.07;;;17.40;;
48205;SDS011;33995;48.202;16.260;2023-08-20T04:19:39;19.53;;;17.97;;
48205;SDS011;33995;48.202;16.260;2023-08-20T04:22:06;20.10;;;18.27;;
48205;SDS011;33995;48.202;16.260;2023-08-20T04:24:40;19.50;;;17.80;;
48205;SDS011;33995;48.202;16.260;2023-08-20T04:27:09;19.97;;;18.37;;
48205;SDS011;33995;48.202;16.260;2023-08-20T04:29:42;19.87;;;18.23;;
48205;SDS011;33995;48.202;16.260;2023-08-20T04:32:12;19.70;;;18.00;;
48205;SDS011;33995;48.202;16.260;2023-08-20T04:34:46;19.97;;;18.33;;
48205;SDS011;33995;48.202;16.260;2023-08-20T04:37:24;19.33;;;17.73;;
48205;SDS011;33995;48.202;16.260;2023-08-20T04:39:57;18.73;;;17.23;;
48205;SDS011;33995;48.202;16.260;2023-08-20T04:42:30;19.47;;;17.90;;
48205;SDS011;33995;48.202;16.260;2023-08-20T04:44:59;18.80;;;17.30;;
48205;SDS011;33995;48.202;16.260;2023-08-20T04:47:35;19.60;;;17.87;;
48205;SDS011;33995;48.202;16.260;2023-08-20T04:50:05;20.20;;;18.50;;
48205;SDS011;33995;48.202;16.260;2023-08-20T04:52:36;18.77;;;17.27;;
48205;SDS011;33995;48.202;16.260;2023-08-20T04:55:08;18.53;;;17.03;;
48205;SDS011;33995;48.202;16.260;2023-08-20T04:57:39;19.27;;;17.57;;
48205;SDS011;33995;48.202;16.260;2023-08-20T05:00:11;18.93;;;17.33;;
48205;SDS011;33995;48.202;16.260;2023-08-20T05:02:50;20.10;;;18.30;;
48205;SDS011;33995;48.202;16.260;2023-08-20T05:05:22;19.00;;;17.40;;
48205;SDS011;33995;48.202;16.260;2023-08-20T05:07:54;19.07;;;17.47;;
48205;SDS011;33995;48.202;16.260;2023-08-20T05:10:22;18.90;;;17.40;;
48205;SDS011;33995;48.202;16.260;2023-08-20T05:12:49;18.57;;;16.97;;
48205;SDS011;33995;48.202;16.260;2023-08-20T05:15:25;18.77;;;17.27;;
48205;SDS011;33995;48.202;16.260;2023-08-20T05:17:57;19.10;;;17.50;;
48205;SDS011;33995;48.202;16.260;2023-08-20T05:20:27;18.30;;;16.90;;
48205;SDS011;33995;48.202;16.260;2023-08-20T05:22:59;18.20;;;16.80;;
48205;SDS011;33995;48.202;16.260;2023-08-20T05:25:27;18.37;;;16.87;;
48205;SDS011;33995;48.202;16.260;2023-08-20T05:27:57;18.37;;;16.93;;
48205;SDS011;33995;48.202;16.260;2023-08-20T05:30:33;18.60;;;17.00;;
48205;SDS011;33995;48.202;16.260;2023-08-20T05:33:02;18.87;;;17.40;;
48205;SDS011;33995;48.202;16.260;2023-08-20T05:35:37;18.90;;;17.40;;
48205;SDS011;33995;48.202;16.260;2023-08-20T05:38:08;18.03;;;16.53;;
48205;SDS011;33995;48.202;16.260;2023-08-20T05:40:37;19.10;;;17.50;;
48205;SDS011;33995;48.202;16.260;2023-08-20T05:43:07;17.73;;;16.33;;
48205;SDS011;33995;48.202;16.260;2023-08-20T05:45:46;18.57;;;17.07;;
48205;SDS011;33995;48.202;16.260;2023-08-20T05:48:20;17.60;;;16.30;;
48205;SDS011;33995;48.202;16.260;2023-08-20T05:50:51;18.93;;;17.40;;
48205;SDS011;33995;48.202;16.260;2023-08-20T05:53:23;17.80;;;16.33;;
48205;SDS011;33995;48.202;16.260;2023-08-20T05:55:56;17.67;;;16.10;;
48205;SDS011;33995;48.202;16.260;2023-08-20T05:58:27;17.60;;;16.20;;
48205;SDS011;33995;48.202;16.260;2023-08-20T06:00:55;16.97;;;15.60;;
48205;SDS011;33995;48.202;16.260;2023-08-20T06:03:24;17.33;;;15.93;;
48205;SDS011;33995;48.202;16.260;2023-08-20T06:05:56;17.63;;;16.20;;
48205;SDS011;33995;48.202;16.260;2023-08-20T06:08:30;17.57;;;16.27;;
48205;SDS011;33995;48.202;16.260;2023-08-20T06:11:01;17.30;;;15.90;;
48205;SDS011;33995;48.202;16.260;2023-08-20T06:13:35;17.47;;;16.00;;
48205;SDS011;33995;48.202;16.260;2023-08-20T06:16:07;17.30;;;15.90;;
48205;SDS011;33995;48.202;16.260;2023-08-20T06:18:37;17.60;;;16.20;;
48205;SDS011;33995;48.202;16.260;2023-08-20T06:21:06;17.77;;;16.27;;
48205;SDS011;33995;48.202;16.260;2023-08-20T06:23:33;17.30;;;15.90;;
48205;SDS011;33995;48.202;16.260;2023-08-20T06:26:11;16.60;;;15.10;;
48205;SDS011;33995;48.202;16.260;2023-08-20T06:28:42;16.43;;;15.00;;
48205;SDS011;33995;48.202;16.260;2023-08-20T06:31:12;17.23;;;15.73;;
48205;SDS011;33995;48.202;16.260;2023-08-20T06:33:43;16.77;;;15.37;;
48205;SDS011;33995;48.202;16.260;2023-08-20T06:36:18;15.73;;;14.53;;
48205;SDS011;33995;48.202;16.260;2023-08-20T06:38:47;16.17;;;14.97;;
48205;SDS011;33995;48.202;16.260;2023-08-20T06:41:15;15.90;;;14.60;;
48205;SDS011;33995;48.202;16.260;2023-08-20T06:43:43;15.33;;;14.17;;
48205;SDS011;33995;48.202;16.260;2023-08-20T06:46:17;16.37;;;15.17;;
48205;SDS011;33995;48.202;16.260;2023-08-20T06:48:44;15.63;;;14.33;;
48205;SDS011;33995;48.202;16.260;2023-08-20T06:51:15;15.20;;;14.03;;
48205;SDS011;33995;48.202;16.260;2023-08-20T06:53:46;15.27;;;14.07;;
48205;SDS011;33995;48.202;16.260;2023-08-20T06:56:18;15.13;;;13.93;;
48205;SDS011;33995;48.202;16.260;2023-08-20T06:58:50;15.10;;;14.00;;
48205;SDS011;33995;48.202;16.260;2023-08-20T07:01:17;14.43;;;13.30;;
48205;SDS011;33995;48.202;16.260;2023-08-20T07:03:49;14.00;;;12.80;;
48205;SDS011;33995;48.202;16.260;2023-08-20T07:06:19;14.40;;;13.30;;
48205;SDS011;33995;48.202;16.260;2023-08-20T07:08:49;14.43;;;13.10;;
48205;SDS011;33995;48.202;16.260;2023-08-20T07:11:20;13.77;;;12.67;;
48205;SDS011;33995;48.202;16.260;2023-08-20T07:13:47;13.67;;;12.67;;
48205;SDS011;33995;48.202;16.260;2023-08-20T07:16:16;13.43;;;12.43;;
48205;SDS011;33995;48.202;16.260;2023-08-20T07:18:45;13.47;;;12.47;;
48205;SDS011;33995;48.202;16.260;2023-08-20T07:21:16;14.27;;;13.17;;
48205;SDS011;33995;48.202;16.260;2023-08-20T07:23:46;13.23;;;12.23;;
48205;SDS011;33995;48.202;16.260;2023-08-20T07:26:18;12.77;;;11.77;;
48205;SDS011;33995;48.202;16.260;2023-08-20T07:28:51;13.30;;;12.30;;
48205;SDS011;33995;48.202;16.260;2023-08-20T07:31:48;12.80;;;11.80;;
48205;SDS011;33995;48.202;16.260;2023-08-20T07:34:38;12.37;;;11.43;;
48205;SDS011;33995;48.202;16.260;2023-08-20T07:37:27;13.07;;;11.70;;
48205;SDS011;33995;48.202;16.260;2023-08-20T07:44:26;12.90;;;11.87;;
48205;SDS011;33995;48.202;16.260;2023-08-20T08:01:38;11.90;;;10.90;;
48205;SDS011;33995;48.202;16.260;2023-08-20T08:04:28;11.47;;;10.67;;
48205;SDS011;33995;48.202;16.260;2023-08-20T08:07:20;11.67;;;10.67;;
48205;SDS011;33995;48.202;16.260;2023-08-20T08:10:11;11.73;;;10.90;;
48205;SDS011;33995;48.202;16.260;2023-08-20T08:13:02;12.20;;;11.20;;
48205;SDS011;33995;48.202;16.260;2023-08-20T08:15:51;12.47;;;11.47;;
48205;SDS011;33995;48.202;16.260;2023-08-20T08:18:45;12.50;;;11.50;;
48205;SDS011;33995;48.202;16.260;2023-08-20T08:21:38;12.23;;;11.30;;
48205;SDS011;33995;48.202;16.260;2023-08-20T08:24:35;11.63;;;10.83;;
48205;SDS011;33995;48.202;16.260;2023-08-20T08:27:28;13.07;;;11.83;;
48205;SDS011;33995;48.202;16.260;2023-08-20T08:30:25;13.00;;;12.10;;
48205;SDS011;33995;48.202;16.260;2023-08-20T08:33:14;12.30;;;11.30;;
48205;SDS011;33995;48.202;16.260;2023-08-20T08:36:07;11.80;;;10.90;;
48205;SDS011;33995;48.202;16.260;2023-08-20T08:39:01;12.37;;;11.40;;
48205;SDS011;33995;48.202;16.260;2023-08-20T08:41:50;12.27;;;11.27;;
48205;SDS011;33995;48.202;16.260;2023-08-20T08:44:45;11.87;;;10.97;;
48205;SDS011;33995;48.202;16.260;2023-08-20T08:47:35;10.93;;;10.10;;
48205;SDS011;33995;48.202;16.260;2023-08-20T08:50:26;11.73;;;10.83;;
48205;SDS011;33995;48.202;16.260;2023-08-20T08:53:16;11.47;;;10.57;;
48205;SDS011;33995;48.202;16.260;2023-08-20T08:56:07;11.50;;;10.67;;
48205;SDS011;33995;48.202;16.260;2023-08-20T08:58:57;11.23;;;10.33;;
48205;SDS011;33995;48.202;16.260;2023-08-20T09:01:47;11.43;;;10.63;;
48205;SDS011;33995;48.202;16.260;2023-08-20T09:04:41;11.20;;;10.20;;
48205;SDS011;33995;48.202;16.260;2023-08-20T09:07:32;11.27;;;10.47;;
48205;SDS011;33995;48.202;16.260;2023-08-20T09:10:24;11.00;;;10.20;;
48205;SDS011;33995;48.202;16.260;2023-08-20T09:13:40;11.00;;;10.20;;
48205;SDS011;33995;48.202;16.260;2023-08-20T09:16:32;11.23;;;10.13;;
48205;SDS011;33995;48.202;16.260;2023-08-20T09:19:02;10.23;;;9.43;;
48205;SDS011;33995;48.202;16.260;2023-08-20T09:21:31;10.43;;;9.70;;
48205;SDS011;33995;48.202;16.260;2023-08-20T09:24:00;10.57;;;9.67;;
48205;SDS011;33995;48.202;16.260;2023-08-20T09:26:33;11.00;;;10.10;;
48205;SDS011;33995;48.202;16.260;2023-08-20T09:29:10;10.37;;;9.47;;
48205;SDS011;33995;48.202;16.260;2023-08-20T09:31:40;10.27;;;9.33;;
48205;SDS011;33995;48.202;16.260;2023-08-20T09:34:12;9.60;;;8.90;;
48205;SDS011;33995;48.202;16.260;2023-08-20T09:36:40;10.13;;;9.33;;
48205;SDS011;33995;48.202;16.260;2023-08-20T09:39:10;9.80;;;8.93;;
48205;SDS011;33995;48.202;16.260;2023-08-20T09:41:38;10.10;;;9.30;;
48205;SDS011;33995;48.202;16.260;2023-08-20T09:44:06;9.33;;;8.63;;
48205;SDS011;33995;48.202;16.260;2023-08-20T09:46:36;9.43;;;8.63;;
48205;SDS011;33995;48.202;16.260;2023-08-20T09:49:06;9.83;;;9.03;;
48205;SDS011;33995;48.202;16.260;2023-08-20T09:51:42;9.57;;;8.87;;
48205;SDS011;33995;48.202;16.260;2023-08-20T09:57:00;9.20;;;8.50;;
48205;SDS011;33995;48.202;16.260;2023-08-20T09:59:35;9.10;;;8.50;;
48205;SDS011;33995;48.202;16.260;2023-08-20T10:02:03;9.53;;;8.77;;
48205;SDS011;33995;48.202;16.260;2023-08-20T10:04:36;10.17;;;9.40;;
48205;SDS011;33995;48.202;16.260;2023-08-20T10:07:03;9.37;;;8.60;;
48205;SDS011;33995;48.202;16.260;2023-08-20T10:09:33;9.00;;;8.40;;
48205;SDS011;33995;48.202;16.260;2023-08-20T10:12:10;8.70;;;8.10;;
48205;SDS011;33995;48.202;16.260;2023-08-20T10:14:41;9.33;;;8.60;;
48205;SDS011;33995;48.202;16.260;2023-08-20T10:17:09;9.70;;;8.83;;
48205;SDS011;33995;48.202;16.260;2023-08-20T10:19:39;10.13;;;9.33;;
48205;SDS011;33995;48.202;16.260;2023-08-20T10:22:08;9.50;;;8.73;;
48205;SDS011;33995;48.202;16.260;2023-08-20T10:24:47;10.70;;;8.80;;
48205;SDS011;33995;48.202;16.260;2023-08-20T10:27:28;9.37;;;8.57;;
48205;SDS011;33995;48.202;16.260;2023-08-20T10:30:07;8.90;;;8.30;;
48205;SDS011;33995;48.202;16.260;2023-08-20T10:32:56;9.20;;;8.40;;
48205;SDS011;33995;48.202;16.260;2023-08-20T10:38:14;9.33;;;8.57;;
48205;SDS011;33995;48.202;16.260;2023-08-20T10:40:49;9.00;;;8.20;;
48205;SDS011;33995;48.202;16.260;2023-08-20T10:43:28;9.17;;;8.57;;
48205;SDS011;33995;48.202;16.260;2023-08-20T10:51:35;9.17;;;8.27;;
48205;SDS011;33995;48.202;16.260;2023-08-20T10:54:09;8.30;;;7.70;;
48205;SDS011;33995;48.202;16.260;2023-08-20T10:56:42;8.93;;;8.13;;
48205;SDS011;33995;48.202;16.260;2023-08-20T10:59:39;8.40;;;7.70;;
48205;SDS011;33995;48.202;16.260;2023-08-20T11:02:11;8.80;;;8.00;;
48205;SDS011;33995;48.202;16.260;2023-08-20T11:04:47;8.93;;;8.23;;
48205;SDS011;33995;48.202;16.260;2023-08-20T11:07:17;8.40;;;7.73;;
48205;SDS011;33995;48.202;16.260;2023-08-20T11:09:48;8.20;;;7.60;;
48205;SDS011;33995;48.202;16.260;2023-08-20T11:12:24;8.20;;;7.47;;
48205;SDS011;33995;48.202;16.260;2023-08-20T11:14:59;8.07;;;7.40;;
48205;SDS011;33995;48.202;16.260;2023-08-20T11:17:35;7.60;;;7.10;;
48205;SDS011;33995;48.202;16.260;2023-08-20T11:20:10;8.07;;;7.47;;
48205;SDS011;33995;48.202;16.260;2023-08-20T11:22:44;8.43;;;7.73;;
48205;SDS011;33995;48.202;16.260;2023-08-20T11:25:12;7.60;;;7.10;;
48205;SDS011;33995;48.202;16.260;2023-08-20T11:27:44;7.10;;;6.43;;
48205;SDS011;33995;48.202;16.260;2023-08-20T11:30:11;7.07;;;6.50;;
48205;SDS011;33995;48.202;16.260;2023-08-20T11:32:42;7.27;;;6.67;;
48205;SDS011;33995;48.202;16.260;2023-08-20T11:35:13;7.37;;;6.77;;
48205;SDS011;33995;48.202;16.260;2023-08-20T11:37:44;7.00;;;6.50;;
48205;SDS011;33995;48.202;16.260;2023-08-20T11:40:14;7.60;;;7.00;;
48205;SDS011;33995;48.202;16.260;2023-08-20T11:42:46;7.60;;;7.10;;
48205;SDS011;33995;48.202;16.260;2023-08-20T11:45:22;7.80;;;7.20;;
48205;SDS011;33995;48.202;16.260;2023-08-20T11:47:56;7.60;;;7.00;;
48205;SDS011;33995;48.202;16.260;2023-08-20T11:50:30;6.78;;;6.28;;
48205;SDS011;33995;48.202;16.260;2023-08-20T11:52:59;7.22;;;6.63;;
48205;SDS011;33995;48.202;16.260;2023-08-20T11:55:31;8.20;;;6.80;;
48205;SDS011;33995;48.202;16.260;2023-08-20T11:58:03;6.85;;;6.35;;
48205;SDS011;33995;48.202;16.260;2023-08-20T12:00:31;7.88;;;6.65;;
48205;SDS011;33995;48.202;16.260;2023-08-20T12:03:02;7.45;;;6.75;;
48205;SDS011;33995;48.202;16.260;2023-08-20T12:05:43;7.00;;;6.35;;
48205;SDS011;33995;48.202;16.260;2023-08-20T12:08:15;6.97;;;6.47;;
48205;SDS011;33995;48.202;16.260;2023-08-20T12:10:49;7.18;;;6.47;;
48205;SDS011;33995;48.202;16.260;2023-08-20T12:13:19;6.97;;;6.28;;
48205;SDS011;33995;48.202;16.260;2023-08-20T12:15:51;7.13;;;6.53;;
48205;SDS011;33995;48.202;16.260;2023-08-20T12:18:22;6.93;;;6.38;;
48205;SDS011;33995;48.202;16.260;2023-08-20T12:20:53;6.78;;;6.28;;
48205;SDS011;33995;48.202;16.260;2023-08-20T12:23:25;6.82;;;6.32;;
48205;SDS011;33995;48.202;16.260;2023-08-20T12:25:58;6.72;;;6.22;;
48205;SDS011;33995;48.202;16.260;2023-08-20T12:28:32;6.82;;;6.22;;
48205;SDS011;33995;48.202;16.260;2023-08-20T12:31:00;7.18;;;6.50;;
48205;SDS011;33995;48.202;16.260;2023-08-20T12:33:31;6.85;;;6.25;;
48205;SDS011;33995;48.202;16.260;2023-08-20T12:36:02;7.13;;;6.47;;
48205;SDS011;33995;48.202;16.260;2023-08-20T12:38:32;7.10;;;6.50;;
48205;SDS011;33995;48.202;16.260;2023-08-20T12:41:03;6.32;;;5.82;;
48205;SDS011;33995;48.202;16.260;2023-08-20T12:43:33;6.38;;;5.88;;
48205;SDS011;33995;48.202;16.260;2023-08-20T12:46:06;6.30;;;5.68;;
48205;SDS011;33995;48.202;16.260;2023-08-20T12:48:35;6.22;;;5.75;;
48205;SDS011;33995;48.202;16.260;2023-08-20T12:51:08;6.57;;;6.07;;
48205;SDS011;33995;48.202;16.260;2023-08-20T12:53:50;6.57;;;5.97;;
48205;SDS011;33995;48.202;16.260;2023-08-20T12:56:24;6.25;;;5.75;;
48205;SDS011;33995;48.202;16.260;2023-08-20T12:58:56;6.77;;;6.17;;
48205;SDS011;33995;48.202;16.260;2023-08-20T13:01:26;6.93;;;6.35;;
48205;SDS011;33995;48.202;16.260;2023-08-20T13:03:57;7.07;;;6.38;;
48205;SDS011;33995;48.202;16.260;2023-08-20T13:06:33;7.10;;;6.50;;
48205;SDS011;33995;48.202;16.260;2023-08-20T13:09:07;6.90;;;6.30;;
48205;SDS011;33995;48.202;16.260;2023-08-20T13:11:45;6.28;;;5.88;;
48205;SDS011;33995;48.202;16.260;2023-08-20T13:14:18;6.50;;;5.90;;
48205;SDS011;33995;48.202;16.260;2023-08-20T13:16:48;6.78;;;6.25;;
48205;SDS011;33995;48.202;16.260;2023-08-20T13:19:18;7.03;;;6.43;;
48205;SDS011;33995;48.202;16.260;2023-08-20T13:21:51;7.43;;;6.82;;
48205;SDS011;33995;48.202;16.260;2023-08-20T13:24:20;6.80;;;6.30;;
48205;SDS011;33995;48.202;16.260;2023-08-20T13:26:51;6.47;;;5.97;;
48205;SDS011;33995;48.202;16.260;2023-08-20T13:29:22;6.78;;;6.28;;
48205;SDS011;33995;48.202;16.260;2023-08-20T13:31:52;7.22;;;6.53;;
48205;SDS011;33995;48.202;16.260;2023-08-20T13:34:20;6.30;;;5.90;;
48205;SDS011;33995;48.202;16.260;2023-08-20T13:36:52;6.90;;;6.30;;
48205;SDS011;33995;48.202;16.260;2023-08-20T13:39:25;7.35;;;6.70;;
48205;SDS011;33995;48.202;16.260;2023-08-20T13:41:56;6.68;;;6.18;;
48205;SDS011;33995;48.202;16.260;2023-08-20T13:44:29;7.03;;;6.50;;
48205;SDS011;33995;48.202;16.260;2023-08-20T13:47:06;7.20;;;6.45;;
48205;SDS011;33995;48.202;16.260;2023-08-20T13:49:36;7.32;;;6.72;;
48205;SDS011;33995;48.202;16.260;2023-08-20T13:52:06;7.78;;;6.82;;
48205;SDS011;33995;48.202;16.260;2023-08-20T13:54:43;7.15;;;6.55;;
48205;SDS011;33995;48.202;16.260;2023-08-20T13:57:25;6.93;;;6.40;;
48205;SDS011;33995;48.202;16.260;2023-08-20T14:00:00;7.45;;;6.85;;
48205;SDS011;33995;48.202;16.260;2023-08-20T14:02:49;7.20;;;6.60;;
48205;SDS011;33995;48.202;16.260;2023-08-20T14:05:27;7.20;;;6.70;;
48205;SDS011;33995;48.202;16.260;2023-08-20T14:08:08;7.00;;;6.50;;
48205;SDS011;33995;48.202;16.260;2023-08-20T14:10:41;7.35;;;6.68;;
48205;SDS011;33995;48.202;16.260;2023-08-20T14:13:13;7.13;;;6.50;;
48205;SDS011;33995;48.202;16.260;2023-08-20T14:15:48;7.18;;;6.55;;
48205;SDS011;33995;48.202;16.260;2023-08-20T14:18:25;7.07;;;6.47;;
48205;SDS011;33995;48.202;16.260;2023-08-20T14:20:59;7.13;;;6.63;;
48205;SDS011;33995;48.202;16.260;2023-08-20T14:23:26;7.50;;;6.80;;
48205;SDS011;33995;48.202;16.260;2023-08-20T14:25:59;7.03;;;6.43;;
48205;SDS011;33995;48.202;16.260;2023-08-20T14:28:34;6.70;;;6.13;;
48205;SDS011;33995;48.202;16.260;2023-08-20T14:31:10;7.50;;;6.70;;
48205;SDS011;33995;48.202;16.260;2023-08-20T14:33:42;7.40;;;6.80;;
48205;SDS011;33995;48.202;16.260;2023-08-20T14:36:13;7.10;;;6.40;;
48205;SDS011;33995;48.202;16.260;2023-08-20T14:38:48;7.77;;;7.20;;
48205;SDS011;33995;48.202;16.260;2023-08-20T14:41:17;6.30;;;5.90;;
48205;SDS011;33995;48.202;16.260;2023-08-20T14:43:47;7.05;;;6.45;;
48205;SDS011;33995;48.202;16.260;2023-08-20T14:46:23;6.77;;;6.20;;
48205;SDS011;33995;48.202;16.260;2023-08-20T14:48:53;7.33;;;6.63;;
48205;SDS011;33995;48.202;16.260;2023-08-20T14:51:24;6.97;;;6.37;;
48205;SDS011;33995;48.202;16.260;2023-08-20T14:53:57;7.32;;;6.30;;
48205;SDS011;33995;48.202;16.260;2023-08-20T14:56:32;6.70;;;6.20;;
48205;SDS011;33995;48.202;16.260;2023-08-20T14:59:06;6.30;;;5.80;;
48205;SDS011;33995;48.202;16.260;2023-08-20T15:01:39;6.73;;;6.13;;
48205;SDS011;33995;48.202;16.260;2023-08-20T15:04:08;7.75;;;6.40;;
48205;SDS011;33995;48.202;16.260;2023-08-20T15:06:41;6.60;;;6.17;;
48205;SDS011;33995;48.202;16.260;2023-08-20T15:09:14;7.73;;;6.67;;
48205;SDS011;33995;48.202;16.260;2023-08-20T15:11:49;6.43;;;5.93;;
48205;SDS011;33995;48.202;16.260;2023-08-20T15:14:30;6.37;;;5.87;;
48205;SDS011;33995;48.202;16.260;2023-08-20T15:16:58;7.73;;;6.80;;
48205;SDS011;33995;48.202;16.260;2023-08-20T15:19:33;6.73;;;6.23;;
48205;SDS011;33995;48.202;16.260;2023-08-20T15:22:05;6.70;;;6.20;;
48205;SDS011;33995;48.202;16.260;2023-08-20T15:24:34;7.33;;;6.63;;
48205;SDS011;33995;48.202;16.260;2023-08-20T15:27:07;7.03;;;6.20;;
48205;SDS011;33995;48.202;16.260;2023-08-20T15:29:43;7.33;;;6.73;;
48205;SDS011;33995;48.202;16.260;2023-08-20T15:32:15;7.50;;;6.70;;
48205;SDS011;33995;48.202;16.260;2023-08-20T15:34:47;7.90;;;7.10;;
48205;SDS011;33995;48.202;16.260;2023-08-20T15:37:18;7.20;;;6.70;;